Time;durP1;ratioP1;P1;durP2;ratioP2;P2;SDS_P1;SDS_P2;PMS_P1;PMS_P2;Temp;Humidity;BMP_temperature;BMP_pressure;BME280_temperature;BME280_humidity;BME280_pressure;Samples;Min_cycle;Max_cycle;Signal;HPM_P1;HPM_P2
2022/03/12 00:01:24;;;;;;;14.43;6.23;;;7.40;96.10;;;;;;5013191;28;20211;-71
2022/03/12 00:03:53;;;;;;;11.40;5.90;;;7.40;96.20;;;;;;5020072;28;20192;-71
2022/03/12 00:06:22;;;;;;;15.97;5.93;;;7.40;96.10;;;;;;5017556;28;20220;-71
2022/03/12 00:08:51;;;;;;;9.60;5.50;;;7.50;96.00;;;;;;5021134;28;20222;-71
2022/03/12 00:11:20;;;;;;;10.83;5.80;;;7.40;96.20;;;;;;5025053;28;20195;-69
2022/03/12 00:13:48;;;;;;;9.73;5.67;;;7.30;96.30;;;;;;5018724;28;20700;-71
2022/03/12 00:16:22;;;;;;;9.03;5.73;;;7.30;96.30;;;;;;5023592;28;20191;-71
2022/03/12 00:18:53;;;;;;;10.20;6.13;;;7.20;96.20;;;;;;5020563;28;20266;-71
2022/03/12 00:21:24;;;;;;;11.37;5.47;;;7.20;96.40;;;;;;5020957;28;20239;-72
2022/03/12 00:23:56;;;;;;;10.33;5.43;;;7.20;96.00;;;;;;5019834;28;20203;-72
2022/03/12 00:26:23;;;;;;;8.73;5.20;;;7.30;96.10;;;;;;5020789;28;20248;-70
2022/03/12 00:28:53;;;;;;;9.67;5.20;;;7.30;96.20;;;;;;5021596;28;20215;-68
2022/03/12 00:31:20;;;;;;;10.00;5.60;;;7.20;96.20;;;;;;5025527;28;20201;-71
2022/03/12 00:33:47;;;;;;;10.37;5.40;;;7.10;96.20;;;;;;5027657;28;20245;-71
2022/03/12 00:36:17;;;;;;;10.63;5.87;;;7.00;96.00;;;;;;5022906;28;20200;-70
2022/03/12 00:38:47;;;;;;;8.40;5.00;;;7.20;95.80;;;;;;5022659;28;20227;-71
2022/03/12 00:41:16;;;;;;;8.70;4.87;;;7.20;95.60;;;;;;5018177;28;20204;-71
2022/03/12 00:43:43;;;;;;;11.17;5.30;;;7.30;95.50;;;;;;5027463;28;20658;-71
2022/03/12 00:46:10;;;;;;;13.07;5.60;;;7.20;95.50;;;;;;5023151;28;20706;-71
2022/03/12 00:48:39;;;;;;;14.83;5.53;;;7.10;95.60;;;;;;5026552;28;20242;-70
2022/03/12 00:51:10;;;;;;;11.83;5.50;;;7.10;95.60;;;;;;5017579;28;20196;-72
2022/03/12 00:53:38;;;;;;;10.57;5.73;;;7.10;95.60;;;;;;5021801;28;20575;-72
2022/03/12 00:56:25;;;;;;;10.23;5.80;;;7.00;95.60;;;;;;5028876;28;20204;-71
2022/03/12 00:58:52;;;;;;;10.20;5.27;;;7.20;95.20;;;;;;5023118;28;20227;-71
2022/03/12 01:01:18;;;;;;;9.87;5.23;;;7.20;95.30;;;;;;5026904;28;20210;-71
2022/03/12 01:03:45;;;;;;;10.93;5.50;;;7.20;95.40;;;;;;5025086;28;20223;-71
2022/03/12 01:06:14;;;;;;;12.47;5.53;;;7.10;95.50;;;;;;5023835;28;20715;-71
2022/03/12 01:08:41;;;;;;;11.37;5.87;;;7.00;95.70;;;;;;5043578;28;20219;-71
2022/03/12 01:11:09;;;;;;;10.53;5.67;;;7.00;95.80;;;;;;5023354;28;20192;-71
2022/03/12 01:13:36;;;;;;;9.63;5.63;;;7.00;95.90;;;;;;5024372;28;20207;-72
2022/03/12 01:16:03;;;;;;;10.07;5.60;;;7.10;95.80;;;;;;5027587;28;20202;-71
2022/03/12 01:18:30;;;;;;;10.77;5.87;;;7.10;95.50;;;;;;5016425;28;20595;-71
2022/03/12 01:21:07;;;;;;;10.63;6.03;;;6.90;95.80;;;;;;5021083;28;20199;-71
2022/03/12 01:23:34;;;;;;;10.03;5.43;;;6.90;95.90;;;;;;5019365;28;20698;-71
2022/03/12 01:26:01;;;;;;;9.17;5.53;;;6.90;95.90;;;;;;5021163;28;20195;-72
2022/03/12 01:28:27;;;;;;;11.10;5.77;;;7.00;95.60;;;;;;5026495;28;20228;-71
2022/03/12 01:30:54;;;;;;;9.70;5.37;;;7.00;95.40;;;;;;5022509;28;20198;-71
2022/03/12 01:33:21;;;;;;;13.70;5.67;;;7.00;95.40;;;;;;5022117;28;20250;-73
2022/03/12 01:35:48;;;;;;;9.20;5.00;;;7.00;95.50;;;;;;5019449;28;20195;-71
2022/03/12 01:38:14;;;;;;;11.63;5.50;;;6.90;95.60;;;;;;5024549;28;20215;-71
2022/03/12 01:40:41;;;;;;;7.83;4.73;;;6.90;95.60;;;;;;5028020;28;20210;-72
2022/03/12 01:43:08;;;;;;;11.00;5.30;;;6.90;95.70;;;;;;5019161;28;20225;-71
2022/03/12 01:45:36;;;;;;;8.87;5.70;;;6.90;95.50;;;;;;5027971;28;20195;-71
2022/03/12 01:48:06;;;;;;;9.17;5.23;;;6.90;95.70;;;;;;5021937;28;20227;-71
2022/03/12 01:50:35;;;;;;;8.87;5.10;;;6.90;95.70;;;;;;5023329;28;20673;-71
2022/03/12 01:53:10;;;;;;;11.23;5.43;;;6.80;95.90;;;;;;5023412;28;20231;-71
2022/03/12 01:55:39;;;;;;;11.10;5.17;;;6.80;95.80;;;;;;5025338;28;20198;-72
2022/03/12 01:58:08;;;;;;;14.37;5.40;;;6.90;95.80;;;;;;5024668;28;20269;-72
2022/03/12 02:00:48;;;;;;;12.80;5.50;;;6.80;95.80;;;;;;5024864;28;20267;-71
2022/03/12 02:03:26;;;;;;;11.27;5.83;;;6.90;95.60;;;;;;5023241;28;20299;-71
2022/03/12 02:05:53;;;;;;;12.60;5.87;;;6.90;95.60;;;;;;5031222;28;20210;-72
2022/03/12 02:08:20;;;;;;;10.67;5.50;;;6.90;95.60;;;;;;5020409;28;20216;-71
2022/03/12 02:10:49;;;;;;;9.27;5.27;;;6.80;95.80;;;;;;5021038;28;20291;-71
2022/03/12 02:13:17;;;;;;;11.97;5.17;;;6.90;95.80;;;;;;5025088;28;20196;-71
2022/03/12 02:15:44;;;;;;;14.27;5.10;;;6.90;95.60;;;;;;5019207;28;20199;-71
2022/03/12 02:18:13;;;;;;;13.63;5.40;;;6.90;95.70;;;;;;5020601;28;20220;-71
2022/03/12 02:20:41;;;;;;;13.37;5.33;;;6.90;96.30;;;;;;5023131;28;20211;-71
2022/03/12 02:23:08;;;;;;;13.10;5.63;;;6.90;95.80;;;;;;5019134;28;20195;-71
2022/03/12 02:25:35;;;;;;;8.60;5.37;;;6.90;95.70;;;;;;5018469;28;20196;-71
2022/03/12 02:28:14;;;;;;;11.60;5.40;;;6.90;95.60;;;;;;5019923;28;20729;-72
2022/03/12 02:30:48;;;;;;;10.87;5.20;;;6.90;95.60;;;;;;5022053;28;20494;-71
2022/03/12 02:33:17;;;;;;;8.67;5.07;;;6.90;95.40;;;;;;5026142;28;20187;-71
2022/03/12 02:35:46;;;;;;;10.20;5.60;;;6.90;95.50;;;;;;5025778;28;20188;-71
2022/03/12 02:38:14;;;;;;;13.50;5.17;;;6.80;95.50;;;;;;5018983;28;20709;-71
2022/03/12 02:40:42;;;;;;;11.93;5.57;;;6.80;95.50;;;;;;5015913;28;20197;-71
2022/03/12 02:43:13;;;;;;;9.53;5.53;;;6.80;95.50;;;;;;5017284;28;20258;-71
2022/03/12 02:45:41;;;;;;;11.80;5.63;;;6.80;95.50;;;;;;5024820;28;20203;-71
2022/03/12 02:48:08;;;;;;;10.53;5.10;;;6.80;95.40;;;;;;5020650;28;20223;-72
2022/03/12 02:50:36;;;;;;;9.77;5.00;;;6.80;95.40;;;;;;5020861;28;20568;-71
2022/03/12 02:53:03;;;;;;;9.83;5.30;;;6.70;95.70;;;;;;5018714;28;20560;-71
2022/03/12 02:55:34;;;;;;;7.77;4.63;;;6.60;95.90;;;;;;5020632;28;20196;-71
2022/03/12 02:58:01;;;;;;;8.13;5.20;;;6.60;96.00;;;;;;5022374;28;20220;-70
2022/03/12 03:00:37;;;;;;;9.70;5.57;;;6.60;96.30;;;;;;5020514;28;20265;-71
2022/03/12 03:03:06;;;;;;;8.13;4.93;;;6.60;95.90;;;;;;5045311;28;20187;-71
2022/03/12 03:05:48;;;;;;;9.67;5.50;;;6.60;95.90;;;;;;5024085;28;20321;-70
2022/03/12 03:08:20;;;;;;;10.17;4.70;;;6.70;95.90;;;;;;5021981;28;20583;-71
2022/03/12 03:10:52;;;;;;;9.57;5.23;;;6.70;95.80;;;;;;5024810;28;20596;-71
2022/03/12 03:13:19;;;;;;;10.20;4.70;;;6.60;95.90;;;;;;5021772;28;20187;-71
2022/03/12 03:15:53;;;;;;;13.03;5.33;;;6.60;96.20;;;;;;5024803;28;20208;-71
2022/03/12 03:18:22;;;;;;;11.67;4.90;;;6.50;96.10;;;;;;5013829;28;20228;-71
2022/03/12 03:20:54;;;;;;;8.27;4.93;;;6.40;95.80;;;;;;5020593;28;20203;-71
2022/03/12 03:23:23;;;;;;;8.47;4.93;;;6.40;96.00;;;;;;5021997;28;20203;-71
2022/03/12 03:25:50;;;;;;;10.33;4.80;;;6.40;95.90;;;;;;5024946;28;20206;-71
2022/03/12 03:28:17;;;;;;;8.50;5.03;;;6.40;96.10;;;;;;5023297;28;20266;-69
2022/03/12 03:30:44;;;;;;;9.50;5.10;;;6.30;95.80;;;;;;5024795;28;20677;-70
2022/03/12 03:33:18;;;;;;;15.87;5.10;;;6.20;96.00;;;;;;5017188;28;20191;-71
2022/03/12 03:35:45;;;;;;;9.70;4.40;;;6.10;96.20;;;;;;5023317;28;20190;-71
2022/03/12 03:38:13;;;;;;;11.37;4.80;;;6.00;96.60;;;;;;5024957;28;20598;-73
2022/03/12 03:40:41;;;;;;;7.93;4.53;;;6.00;96.60;;;;;;5017052;28;20222;-70
2022/03/12 03:43:14;;;;;;;9.03;4.70;;;5.80;97.10;;;;;;5014988;28;20207;-70
2022/03/12 03:45:43;;;;;;;8.23;4.40;;;5.70;97.20;;;;;;5019743;28;20206;-71
2022/03/12 03:48:18;;;;;;;8.80;5.03;;;5.70;96.80;;;;;;5023781;28;20243;-70
2022/03/12 03:50:47;;;;;;;9.17;5.10;;;5.70;96.80;;;;;;5028259;28;20198;-71
2022/03/12 03:53:16;;;;;;;12.07;5.00;;;5.60;96.90;;;;;;5024439;28;20194;-72
2022/03/12 03:55:43;;;;;;;9.93;5.40;;;5.70;96.80;;;;;;5026298;28;20198;-71
2022/03/12 03:58:14;;;;;;;9.00;5.03;;;5.70;96.80;;;;;;5019370;28;20266;-71
2022/03/12 04:00:59;;;;;;;9.30;4.83;;;5.70;96.70;;;;;;5020815;28;20580;-71
2022/03/12 04:03:32;;;;;;;10.33;5.17;;;5.60;96.90;;;;;;5029004;28;20191;-73
2022/03/12 04:06:01;;;;;;;8.57;4.73;;;5.50;97.20;;;;;;5028525;28;20197;-69
2022/03/12 04:08:29;;;;;;;7.90;4.73;;;5.50;97.00;;;;;;5022250;28;20589;-72
2022/03/12 04:10:55;;;;;;;9.10;4.97;;;5.50;97.10;;;;;;5025138;28;20286;-71
2022/03/12 04:13:23;;;;;;;10.10;5.30;;;5.40;97.10;;;;;;5028016;28;20235;-73
2022/03/12 04:15:52;;;;;;;8.40;4.80;;;5.40;97.10;;;;;;5029169;28;20203;-71
2022/03/12 04:18:21;;;;;;;9.33;5.20;;;5.30;97.20;;;;;;5025047;28;20729;-72
2022/03/12 04:20:48;;;;;;;7.50;4.53;;;5.10;97.40;;;;;;5020843;28;20200;-72
2022/03/12 04:23:21;;;;;;;8.87;4.70;;;5.00;97.70;;;;;;5026055;28;20199;-73
2022/03/12 04:25:51;;;;;;;11.10;5.10;;;4.90;97.50;;;;;;5021538;28;20200;-71
2022/03/12 04:28:23;;;;;;;9.77;4.57;;;4.90;97.80;;;;;;5025391;28;20323;-72
2022/03/12 04:30:50;;;;;;;9.13;4.60;;;4.80;98.20;;;;;;5026001;28;20661;-73
2022/03/12 04:33:19;;;;;;;7.87;4.70;;;4.70;98.40;;;;;;5019949;28;20197;-73
2022/03/12 04:35:48;;;;;;;12.57;4.70;;;4.90;97.90;;;;;;5024958;28;20199;-72
2022/03/12 04:38:15;;;;;;;12.20;5.03;;;4.90;97.70;;;;;;5023386;28;20637;-71
2022/03/12 04:40:44;;;;;;;7.67;4.80;;;4.90;97.60;;;;;;5021566;28;20202;-72
2022/03/12 04:43:12;;;;;;;8.07;4.50;;;4.90;98.00;;;;;;5024523;28;20192;-73
2022/03/12 04:45:42;;;;;;;8.90;4.70;;;4.90;98.10;;;;;;5027495;28;20196;-73
2022/03/12 04:48:13;;;;;;;10.37;5.27;;;4.90;98.00;;;;;;5024598;28;20319;-72
2022/03/12 04:50:40;;;;;;;8.20;4.63;;;4.90;98.00;;;;;;5025848;28;20671;-72
2022/03/12 04:53:08;;;;;;;12.33;4.87;;;4.80;98.30;;;;;;5023568;28;20192;-72
2022/03/12 04:55:38;;;;;;;8.73;4.73;;;4.90;98.10;;;;;;5025544;28;20197;-71
2022/03/12 04:58:07;;;;;;;8.93;5.03;;;4.80;98.10;;;;;;5027878;28;20214;-69
2022/03/12 05:00:38;;;;;;;8.27;4.80;;;4.90;97.90;;;;;;5025637;28;20213;-73
2022/03/12 05:03:13;;;;;;;9.27;4.90;;;4.80;98.20;;;;;;5039180;28;20538;-71
2022/03/12 05:05:46;;;;;;;7.53;4.73;;;4.80;98.30;;;;;;5022282;28;20200;-73
2022/03/12 05:08:16;;;;;;;7.53;4.83;;;5.10;97.80;;;;;;5026772;28;20225;-71
2022/03/12 05:10:47;;;;;;;8.70;4.73;;;5.20;97.50;;;;;;5021696;28;20614;-71
2022/03/12 05:13:13;;;;;;;8.53;4.80;;;5.10;97.70;;;;;;5020120;28;20253;-71
2022/03/12 05:15:40;;;;;;;9.03;4.97;;;5.10;97.50;;;;;;5023685;28;20690;-71
2022/03/12 05:18:11;;;;;;;7.40;4.30;;;5.10;97.60;;;;;;5017234;28;20212;-73
2022/03/12 05:20:46;;;;;;;7.83;4.60;;;5.00;98.10;;;;;;5020310;28;20205;-71
2022/03/12 05:23:13;;;;;;;8.20;4.50;;;4.80;98.30;;;;;;5025556;28;20199;-71
2022/03/12 05:25:46;;;;;;;7.67;4.80;;;4.70;98.30;;;;;;5022942;28;20196;-71
2022/03/12 05:28:16;;;;;;;7.03;4.60;;;4.70;98.60;;;;;;5019780;28;20220;-71
2022/03/12 05:30:45;;;;;;;9.23;4.67;;;4.70;98.70;;;;;;5018503;28;20663;-71
2022/03/12 05:33:13;;;;;;;9.00;5.00;;;4.70;98.60;;;;;;5019745;28;20202;-72
2022/03/12 05:35:42;;;;;;;8.37;4.73;;;4.70;98.50;;;;;;5027356;28;20492;-71
2022/03/12 05:38:11;;;;;;;7.90;4.20;;;4.80;98.60;;;;;;5020841;28;20216;-72
2022/03/12 05:40:44;;;;;;;7.43;4.23;;;4.70;98.60;;;;;;5024669;28;20615;-71
2022/03/12 05:43:14;;;;;;;8.67;4.77;;;4.70;98.60;;;;;;5017746;28;20667;-72
2022/03/12 05:45:45;;;;;;;8.40;4.80;;;4.60;98.30;;;;;;5026135;28;20573;-71
2022/03/12 05:48:14;;;;;;;9.73;4.57;;;4.60;98.70;;;;;;5021841;28;20211;-71
2022/03/12 05:50:42;;;;;;;8.13;4.73;;;4.50;98.80;;;;;;5023653;28;20193;-72
2022/03/12 05:53:09;;;;;;;5.67;3.97;;;4.50;98.70;;;;;;5017922;28;20203;-71
2022/03/12 05:55:40;;;;;;;8.03;4.60;;;4.50;98.80;;;;;;5026797;28;20196;-72
2022/03/12 05:58:10;;;;;;;8.57;4.80;;;4.50;99.10;;;;;;5015916;28;20222;-70
2022/03/12 06:00:39;;;;;;;8.23;4.60;;;4.60;98.70;;;;;;5021557;28;20666;-72
2022/03/12 06:03:10;;;;;;;7.33;4.60;;;4.60;98.30;;;;;;5030105;28;20199;-73
2022/03/12 06:05:41;;;;;;;8.50;4.90;;;4.70;98.40;;;;;;5027659;28;20646;-73
2022/03/12 06:08:09;;;;;;;10.07;5.00;;;4.80;98.20;;;;;;5021464;28;20217;-72
2022/03/12 06:10:37;;;;;;;7.70;4.60;;;4.80;97.90;;;;;;5023923;28;20203;-71
2022/03/12 06:13:08;;;;;;;8.87;4.80;;;5.10;97.70;;;;;;5022348;28;20185;-71
2022/03/12 06:15:36;;;;;;;8.93;4.53;;;5.00;98.00;;;;;;5024624;28;20200;-71
2022/03/12 06:18:03;;;;;;;6.70;4.10;;;5.00;98.20;;;;;;5022651;28;20223;-71
2022/03/12 06:20:29;;;;;;;8.33;5.00;;;5.00;98.10;;;;;;5019604;28;20674;-71
2022/03/12 06:22:56;;;;;;;7.70;4.77;;;5.10;97.80;;;;;;5027513;28;20189;-71
2022/03/12 06:25:24;;;;;;;8.23;4.63;;;5.20;97.60;;;;;;5019557;28;20205;-72
2022/03/12 06:27:54;;;;;;;8.67;4.70;;;5.30;97.60;;;;;;5013734;28;20225;-71
2022/03/12 06:30:28;;;;;;;8.07;4.50;;;5.40;97.60;;;;;;5013734;28;20569;-71
2022/03/12 06:32:55;;;;;;;8.40;4.90;;;5.50;97.50;;;;;;5016305;28;20241;-72
2022/03/12 06:35:24;;;;;;;9.57;5.23;;;5.60;97.50;;;;;;5022390;28;20196;-71
2022/03/12 06:37:50;;;;;;;8.87;4.87;;;5.60;97.70;;;;;;5024555;28;20217;-72
2022/03/12 06:40:18;;;;;;;8.63;5.00;;;5.70;97.20;;;;;;5024271;28;20221;-71
2022/03/12 06:42:48;;;;;;;11.50;4.93;;;5.80;97.20;;;;;;5019409;28;20196;-72
2022/03/12 06:45:15;;;;;;;8.60;4.73;;;5.90;96.90;;;;;;5021107;28;20668;-72
2022/03/12 06:47:46;;;;;;;10.77;5.00;;;6.10;96.90;;;;;;5024734;28;20223;-72
2022/03/12 06:50:16;;;;;;;8.27;5.20;;;6.20;96.90;;;;;;5022069;28;20193;-73
2022/03/12 06:52:47;;;;;;;8.53;5.10;;;6.40;96.60;;;;;;5023636;28;20239;-72
2022/03/12 06:55:23;;;;;;;7.90;4.60;;;6.40;96.90;;;;;;5019693;28;20574;-72
2022/03/12 06:57:52;;;;;;;9.27;4.93;;;6.50;96.90;;;;;;5025297;28;20220;-73
2022/03/12 07:00:25;;;;;;;9.30;4.90;;;6.60;95.90;;;;;;5036658;28;20236;-72
2022/03/12 07:02:52;;;;;;;8.70;4.80;;;6.50;96.00;;;;;;5018040;28;20206;-71
2022/03/12 07:05:20;;;;;;;11.07;5.03;;;6.50;96.20;;;;;;5022435;28;20196;-73
2022/03/12 07:07:47;;;;;;;8.53;4.63;;;6.50;96.20;;;;;;5020548;28;20599;-72
2022/03/12 07:10:14;;;;;;;16.07;5.47;;;6.60;96.90;;;;;;5026674;28;20214;-72
2022/03/12 07:12:43;;;;;;;12.13;5.23;;;6.80;96.30;;;;;;5023764;28;20211;-73
2022/03/12 07:15:11;;;;;;;16.23;5.60;;;6.80;96.90;;;;;;5014901;28;20202;-72
2022/03/12 07:17:38;;;;;;;11.13;5.23;;;6.90;96.10;;;;;;5026508;28;20219;-73
2022/03/12 07:20:12;;;;;;;12.67;4.97;;;7.00;96.00;;;;;;5025445;28;20270;-73
2022/03/12 07:22:39;;;;;;;11.97;4.60;;;7.00;96.20;;;;;;5021525;28;20635;-73
2022/03/12 07:25:08;;;;;;;10.77;5.57;;;7.00;96.70;;;;;;5017949;28;20192;-70
2022/03/12 07:27:35;;;;;;;9.73;4.90;;;7.20;96.00;;;;;;5025562;28;21548;-73
2022/03/12 07:30:03;;;;;;;9.20;4.70;;;7.20;96.20;;;;;;5014953;28;20193;-72
2022/03/12 07:32:30;;;;;;;14.30;5.43;;;7.30;95.80;;;;;;5015687;28;20215;-72
2022/03/12 07:34:56;;;;;;;9.07;4.97;;;7.40;95.50;;;;;;5023454;28;20191;-72
2022/03/12 07:37:23;;;;;;;12.30;5.67;;;7.40;95.90;;;;;;5026660;28;20580;-72
2022/03/12 07:39:51;;;;;;;11.83;5.50;;;7.40;96.00;;;;;;5029287;28;20199;-71
2022/03/12 07:42:18;;;;;;;14.33;5.07;;;7.50;95.40;;;;;;5029647;28;20278;-72
2022/03/12 07:44:45;;;;;;;11.57;5.47;;;7.70;95.30;;;;;;5028922;28;20199;-70
2022/03/12 07:47:12;;;;;;;14.90;5.53;;;7.90;95.20;;;;;;5025682;28;20773;-70
2022/03/12 07:49:38;;;;;;;10.13;5.50;;;8.00;95.00;;;;;;5018398;28;20223;-70
2022/03/12 07:52:09;;;;;;;12.23;5.73;;;8.10;94.90;;;;;;5026621;28;20184;-70
2022/03/12 07:54:36;;;;;;;13.80;5.40;;;8.20;95.10;;;;;;5025982;28;20196;-70
2022/03/12 07:57:03;;;;;;;11.20;5.57;;;8.30;94.90;;;;;;5020586;28;20219;-69
2022/03/12 07:59:30;;;;;;;12.50;5.83;;;8.60;94.50;;;;;;5024405;28;20208;-70
2022/03/12 08:01:58;;;;;;;12.43;6.30;;;8.60;94.20;;;;;;5023763;28;20199;-71
2022/03/12 08:04:26;;;;;;;10.07;5.53;;;8.70;94.20;;;;;;5026997;28;20197;-70
2022/03/12 08:06:53;;;;;;;12.00;5.23;;;8.80;94.40;;;;;;5019055;28;20206;-70
2022/03/12 08:09:19;;;;;;;10.80;5.70;;;9.00;94.10;;;;;;5023520;28;20217;-70
2022/03/12 08:11:47;;;;;;;13.47;5.93;;;9.00;94.30;;;;;;5025030;28;20202;-70
2022/03/12 08:14:17;;;;;;;11.00;5.90;;;8.90;94.00;;;;;;5023730;28;20248;-71
2022/03/12 08:16:45;;;;;;;10.20;5.70;;;8.90;94.20;;;;;;5027199;28;20674;-71
2022/03/12 08:19:12;;;;;;;14.47;5.20;;;8.80;94.60;;;;;;5023659;28;20245;-72
2022/03/12 08:21:39;;;;;;;8.87;5.30;;;8.80;94.70;;;;;;5024002;28;20320;-70
2022/03/12 08:24:12;;;;;;;9.53;5.40;;;8.70;94.70;;;;;;5026627;28;20199;-71
2022/03/12 08:26:41;;;;;;;9.50;5.00;;;8.70;94.50;;;;;;5027790;28;20216;-70
2022/03/12 08:29:14;;;;;;;10.67;5.60;;;8.50;94.80;;;;;;5024949;28;20218;-75
2022/03/12 08:31:41;;;;;;;11.57;6.07;;;8.30;94.80;;;;;;5022261;28;20204;-74
2022/03/12 08:34:10;;;;;;;12.00;5.17;;;8.30;95.00;;;;;;5013916;28;20246;-71
2022/03/12 08:36:37;;;;;;;12.70;5.60;;;8.20;94.80;;;;;;5019938;28;20469;-70
2022/03/12 08:39:04;;;;;;;8.40;5.10;;;8.20;94.90;;;;;;5026692;28;20198;-70
2022/03/12 08:41:33;;;;;;;12.07;5.73;;;8.10;95.30;;;;;;5019493;28;20214;-68
2022/03/12 08:44:00;;;;;;;15.07;5.20;;;8.20;95.10;;;;;;5028474;28;20259;-71
2022/03/12 08:46:27;;;;;;;15.47;5.97;;;8.20;95.20;;;;;;5027744;28;20199;-69
2022/03/12 08:48:54;;;;;;;8.97;5.10;;;8.20;95.30;;;;;;5023563;28;20215;-71
2022/03/12 08:51:20;;;;;;;11.50;5.87;;;8.30;95.30;;;;;;5023547;28;20260;-70
2022/03/12 08:53:47;;;;;;;10.60;5.63;;;8.40;95.30;;;;;;5021688;28;20258;-70
2022/03/12 08:56:14;;;;;;;10.83;6.03;;;8.50;95.10;;;;;;5027185;28;20201;-71
2022/03/12 08:58:41;;;;;;;10.37;5.40;;;8.50;95.20;;;;;;5022877;28;20229;-70
2022/03/12 09:01:08;;;;;;;12.40;5.40;;;8.40;95.00;;;;;;5029108;28;20203;-71
2022/03/12 09:03:37;;;;;;;13.90;6.10;;;8.30;95.40;;;;;;5020094;28;20676;-70
2022/03/12 09:06:04;;;;;;;13.63;5.60;;;8.50;95.70;;;;;;5017500;28;20201;-71
2022/03/12 09:08:31;;;;;;;10.63;5.63;;;8.70;95.30;;;;;;5025980;28;20235;-70
2022/03/12 09:10:59;;;;;;;9.10;5.33;;;8.70;95.10;;;;;;5025903;28;20201;-71
2022/03/12 09:13:25;;;;;;;11.90;5.80;;;8.80;95.20;;;;;;5023968;28;20233;-71
2022/03/12 09:15:52;;;;;;;10.07;5.57;;;8.80;94.90;;;;;;5017029;28;20197;-70
2022/03/12 09:18:20;;;;;;;16.33;5.37;;;8.70;94.90;;;;;;5020526;28;20220;-70
2022/03/12 09:20:47;;;;;;;10.90;6.00;;;8.70;95.50;;;;;;5021972;28;20197;-70
2022/03/12 09:23:16;;;;;;;17.93;6.47;;;8.70;95.40;;;;;;5021601;28;20195;-69
2022/03/12 09:25:43;;;;;;;11.20;6.00;;;8.80;95.40;;;;;;5021803;28;20249;-70
2022/03/12 09:28:10;;;;;;;16.53;6.07;;;8.80;95.20;;;;;;5017369;28;20216;-70
2022/03/12 09:30:37;;;;;;;10.87;5.23;;;8.80;95.40;;;;;;5023312;28;20609;-69
2022/03/12 09:33:06;;;;;;;11.10;6.03;;;8.90;95.20;;;;;;5021389;28;20192;-70
2022/03/12 09:35:33;;;;;;;11.77;6.27;;;8.90;95.50;;;;;;5020168;28;20690;-70
2022/03/12 09:38:01;;;;;;;14.53;6.33;;;9.00;95.50;;;;;;5026621;28;20210;-71
2022/03/12 09:40:30;;;;;;;10.37;5.40;;;9.20;95.30;;;;;;5021111;28;20580;-70
2022/03/12 09:42:57;;;;;;;15.17;6.43;;;9.40;95.20;;;;;;5019115;28;20552;-70
2022/03/12 09:45:24;;;;;;;12.57;6.07;;;9.50;95.30;;;;;;5019418;28;20195;-70
2022/03/12 09:47:52;;;;;;;9.57;5.87;;;9.70;95.10;;;;;;5021809;28;20219;-70
2022/03/12 09:50:19;;;;;;;12.67;6.00;;;9.70;94.60;;;;;;5020480;28;20218;-70
2022/03/12 09:52:46;;;;;;;11.23;5.70;;;9.60;94.70;;;;;;5030163;28;20205;-72
2022/03/12 09:55:14;;;;;;;12.13;5.93;;;9.70;95.00;;;;;;5016018;28;20219;-71
2022/03/12 09:57:44;;;;;;;12.03;6.27;;;9.80;95.00;;;;;;5019625;28;20293;-70
2022/03/12 10:00:11;;;;;;;14.10;6.43;;;10.00;95.20;;;;;;5014409;28;20267;-69
2022/03/12 10:02:38;;;;;;;12.27;6.40;;;10.30;95.20;;;;;;5022376;28;20575;-69
2022/03/12 10:05:05;;;;;;;13.67;6.80;;;10.60;94.70;;;;;;5022820;28;20195;-70
2022/03/12 10:07:32;;;;;;;11.43;5.93;;;10.80;94.20;;;;;;5020950;28;20215;-70
2022/03/12 10:10:00;;;;;;;14.20;6.67;;;10.70;94.00;;;;;;5021839;28;20221;-68
2022/03/12 10:12:26;;;;;;;10.43;6.47;;;10.50;94.40;;;;;;5022582;28;20240;-69
2022/03/12 10:14:57;;;;;;;11.10;6.00;;;10.60;94.50;;;;;;5021683;28;20206;-69
2022/03/12 10:17:24;;;;;;;12.53;6.17;;;10.60;94.80;;;;;;5018760;28;20566;-69
2022/03/12 10:19:51;;;;;;;12.97;6.30;;;10.80;94.60;;;;;;5024534;28;20204;-70
2022/03/12 10:22:17;;;;;;;10.10;5.73;;;10.80;94.60;;;;;;5027392;28;20678;-70
2022/03/12 10:24:44;;;;;;;13.40;6.37;;;11.00;94.50;;;;;;5019103;28;20571;-70
2022/03/12 10:27:11;;;;;;;13.43;6.70;;;11.10;94.50;;;;;;5010250;28;20216;-70
2022/03/12 10:29:38;;;;;;;17.63;7.03;;;11.30;94.30;;;;;;5017045;28;20227;-70
2022/03/12 10:32:29;;;;;;;11.17;6.60;;;11.50;94.50;;;;;;5027185;28;20234;-69
2022/03/12 10:34:59;;;;;;;12.80;6.87;;;11.50;94.30;;;;;;5030596;28;20281;-70
2022/03/12 10:37:28;;;;;;;12.30;6.30;;;11.50;94.30;;;;;;5028524;28;20691;-71
2022/03/12 10:40:10;;;;;;;10.77;6.53;;;11.10;94.70;;;;;;5021799;28;20195;-72
2022/03/12 10:42:52;;;;;;;10.70;6.13;;;11.00;95.00;;;;;;5010458;28;20204;-69
2022/03/12 10:45:28;;;;;;;13.73;6.53;;;11.20;95.30;;;;;;5010791;28;20206;-69
2022/03/12 10:48:02;;;;;;;12.23;6.63;;;11.40;95.10;;;;;;5025569;28;20269;-73
2022/03/12 10:50:38;;;;;;;11.70;6.37;;;11.70;95.00;;;;;;5018581;28;20219;-70
2022/03/12 10:53:07;;;;;;;13.73;6.47;;;11.60;94.90;;;;;;5030209;28;20226;-70
2022/03/12 10:55:36;;;;;;;10.50;6.50;;;11.60;95.20;;;;;;5028843;28;20675;-72
2022/03/12 10:58:03;;;;;;;12.33;7.00;;;11.70;95.80;;;;;;5022075;28;20394;-70
2022/03/12 11:00:37;;;;;;;9.43;6.43;;;11.90;95.20;;;;;;5026689;28;20749;-71
2022/03/12 11:03:13;;;;;;;14.33;7.23;;;12.00;95.50;;;;;;5029851;28;20207;-71
2022/03/12 11:05:43;;;;;;;12.67;7.20;;;12.10;95.00;;;;;;5027582;28;20683;-70
2022/03/12 11:08:15;;;;;;;12.43;6.97;;;12.00;95.00;;;;;;5024565;28;20221;-70
2022/03/12 11:11:13;;;;;;;11.67;6.50;;;11.90;95.10;;;;;;5028817;28;20674;-70
2022/03/12 11:13:47;;;;;;;10.10;6.60;;;12.10;95.40;;;;;;5023554;28;20197;-70
2022/03/12 11:16:24;;;;;;;12.13;6.87;;;12.20;95.20;;;;;;5022374;28;20192;-69
2022/03/12 11:18:51;;;;;;;13.50;7.63;;;12.40;95.20;;;;;;5009588;28;20774;-72
2022/03/12 11:21:43;;;;;;;12.57;6.90;;;12.60;95.10;;;;;;5028821;28;20198;-71
2022/03/12 11:24:27;;;;;;;11.33;6.83;;;12.70;95.90;;;;;;5025369;28;20194;-72
2022/03/12 11:27:01;;;;;;;12.77;7.00;;;13.00;95.50;;;;;;5016923;28;20188;-76
2022/03/12 11:29:29;;;;;;;11.30;6.77;;;13.30;95.00;;;;;;5028475;28;20226;-77
2022/03/12 11:32:00;;;;;;;11.77;6.97;;;13.50;94.80;;;;;;5021840;28;20190;-79
2022/03/12 11:34:43;;;;;;;13.03;7.40;;;13.70;94.60;;;;;;5020591;28;20194;-77
2022/03/12 11:37:20;;;;;;;14.07;7.20;;;13.90;94.90;;;;;;5018161;28;20223;-75
2022/03/12 11:39:52;;;;;;;15.93;6.90;;;13.90;94.70;;;;;;5022554;28;20229;-74
2022/03/12 11:42:23;;;;;;;12.40;7.40;;;13.70;94.90;;;;;;5021882;28;20198;-74
2022/03/12 11:44:55;;;;;;;11.30;6.93;;;13.70;94.80;;;;;;5025447;28;20207;-76
2022/03/12 11:47:31;;;;;;;12.63;7.30;;;13.70;94.80;;;;;;5020798;28;20266;-76
2022/03/12 11:50:00;;;;;;;12.47;7.50;;;13.60;95.10;;;;;;5018980;28;20213;-80
2022/03/12 11:52:28;;;;;;;11.83;7.70;;;13.70;95.00;;;;;;5021557;28;20192;-80
2022/03/12 11:54:56;;;;;;;13.70;7.27;;;13.80;95.30;;;;;;5025800;28;20238;-79
2022/03/12 11:57:31;;;;;;;11.87;7.17;;;13.70;95.30;;;;;;5018137;28;20213;-79
2022/03/12 11:59:59;;;;;;;11.67;7.07;;;13.80;95.00;;;;;;5009775;28;20208;-78
2022/03/12 12:02:32;;;;;;;12.10;7.07;;;13.80;94.90;;;;;;5018868;28;20210;-78
2022/03/12 12:05:04;;;;;;;11.97;6.87;;;13.90;96.00;;;;;;5021372;28;20242;-75
2022/03/12 12:07:36;;;;;;;15.43;8.00;;;14.10;95.30;;;;;;5026075;28;20231;-74
2022/03/12 12:10:04;;;;;;;12.17;7.50;;;14.20;95.30;;;;;;5021326;28;20221;-72
2022/03/12 12:12:39;;;;;;;13.37;7.23;;;14.50;95.00;;;;;;5024027;28;20234;-70
2022/03/12 12:15:14;;;;;;;11.03;7.07;;;14.70;94.80;;;;;;5013835;28;20674;-72
2022/03/12 12:17:43;;;;;;;13.63;7.70;;;14.90;94.80;;;;;;5009214;28;20270;-71
2022/03/12 12:20:12;;;;;;;14.97;7.80;;;14.80;94.20;;;;;;5019895;28;20207;-71
2022/03/12 12:22:39;;;;;;;13.80;7.77;;;14.60;94.60;;;;;;5027664;28;20203;-71
2022/03/12 12:25:07;;;;;;;11.10;6.93;;;14.50;94.80;;;;;;5031140;28;20207;-71
2022/03/12 12:27:42;;;;;;;12.57;7.53;;;14.40;95.20;;;;;;5030724;28;20728;-71
2022/03/12 12:30:15;;;;;;;17.37;7.83;;;14.60;95.10;;;;;;5027824;28;20225;-72
2022/03/12 12:32:49;;;;;;;13.53;7.50;;;14.80;94.40;;;;;;5027494;28;20209;-71
2022/03/12 12:35:20;;;;;;;17.90;8.50;;;14.80;94.70;;;;;;5028299;28;20693;-72
2022/03/12 12:37:50;;;;;;;17.27;8.00;;;14.80;94.80;;;;;;5039322;28;20219;-71
2022/03/12 12:40:36;;;;;;;11.53;7.53;;;15.00;95.20;;;;;;5027200;28;20202;-70
2022/03/12 12:44:21;;;;;;;14.97;7.97;;;15.20;95.20;;;;;;5032613;28;20265;-72
2022/03/12 12:46:34;;;;;;;13.50;8.33;;;15.30;94.60;;;;;;5014729;28;20276;-73
2022/03/12 12:49:03;;;;;;;15.97;7.53;;;15.30;94.70;;;;;;5030733;28;20224;-72
2022/03/12 12:51:30;;;;;;;14.03;7.83;;;15.20;94.40;;;;;;5024040;28;20199;-71
2022/03/12 12:54:00;;;;;;;11.93;7.43;;;15.30;95.20;;;;;;5022995;28;20725;-71
2022/03/12 12:56:26;;;;;;;15.20;8.07;;;15.40;95.20;;;;;;5022557;28;20192;-68
2022/03/12 12:59:02;;;;;;;18.87;7.80;;;15.30;94.70;;;;;;5024828;28;21000;-71
2022/03/12 13:01:34;;;;;;;14.33;7.80;;;15.30;94.60;;;;;;5022358;28;20207;-73